Latest Weather Observations for Penrith

IDN60801

Issued at 8:02 pm EST Wednesday 2 September 2015 (issued every 30 minutes, with the page automatically refreshed every 10 minutes)

About weather observations | Map of weather stations | Latest weather observations for NSW | Other Formats
Station Details ID: 067113 Name: PENRITH LAKES AWS Lat: -33.72 Lon: 150.68 Height: 24.7 m
Data from the previous 72 hours. | See also: Recent months at Penrith
Date/Time
EST
Temp
°C
App
Temp
°C
Dew
Point
Rel
Hum
%
Delta-T
°C
Wind Press
QNH
hPa
Press
MSL
hPa
Rain
since 9 am
mm
Dir
 
Spd
km/h
Gust
km/h
Spd
kts
Gust
kts
02/08:00pm 13.7 13.2 7.9 68 2.9 CALM 0 0 0 0 - - 0.0
02/07:30pm 14.1 13.1 7.4 64 3.3 WSW 2 4 1 2 - - 0.0
02/07:00pm 14.4 13.4 7.5 63 3.4 WNW 2 4 1 2 - - 0.0
02/06:30pm 14.5 13.0 6.8 60 3.7 WSW 4 6 2 3 - - 0.0
02/06:00pm 15.4 14.3 5.0 50 4.9 CALM 0 0 0 0 - - 0.0
02/05:30pm 17.6 14.9 2.4 36 6.9 ENE 6 7 3 4 - - 0.0
02/05:00pm 19.1 15.9 2.9 34 7.5 NE 9 11 5 6 - - 0.0
02/04:30pm 19.9 16.6 2.7 32 8.0 NE 9 15 5 8 - - 0.0
02/04:00pm 20.1 16.8 2.5 31 8.2 NE 9 17 5 9 - - 0.0
02/03:30pm 19.9 17.3 4.4 36 7.5 NNE 7 13 4 7 - - 0.0
02/03:00pm 19.5 16.7 5.2 39 7.0 NNE 9 17 5 9 - - 0.0
02/02:30pm 18.9 16.3 4.3 38 7.0 NNE 7 11 4 6 - - 0.0
02/02:00pm 18.5 16.9 4.3 39 6.8 SE 2 2 1 1 - - 0.0
02/01:30pm 17.6 14.8 3.1 38 6.7 NNE 7 13 4 7 - - 0.0
02/01:00pm 17.2 14.9 5.5 46 5.7 NNE 7 13 4 7 - - 0.0
02/12:30pm 16.3 13.9 5.3 48 5.3 E 7 11 4 6 - - 0.0
02/12:00pm 15.3 13.0 4.7 49 5.0 ENE 6 7 3 4 - - 0.0
02/11:30am 15.1 13.1 4.2 48 5.0 ENE 4 7 2 4 - - 0.0
02/11:00am 13.6 11.7 4.7 55 4.1 SE 4 7 2 4 - - 0.0
02/10:30am 12.7 11.3 5.6 62 3.3 WSW 2 6 1 3 - - 0.0
02/10:00am 11.9 10.5 5.5 65 3.0 NE 2 4 1 2 - - 0.0
02/09:30am 10.5 8.9 6.5 76 1.9 NE 4 6 2 3 - - 0.0
02/09:00am 9.5 8.0 6.8 83 1.3 NNW 4 6 2 3 - - 0.0
02/08:30am 9.3 7.6 5.7 78 1.6 N 4 6 2 3 - - 0.0
02/08:00am 8.9 7.9 5.6 80 1.5 CALM 0 4 0 2 - - 0.0
02/07:30am 6.9 5.9 5.5 91 0.6 CALM 0 0 0 0 - - 0.0
02/07:00am 5.4 4.3 5.1 98 0.1 CALM 0 0 0 0 - - 0.0
02/06:30am 4.5 3.2 4.1 97 0.2 CALM 0 0 0 0 - - 0.0
02/06:00am 5.0 3.8 4.6 97 0.2 CALM 0 2 0 1 - - 0.0
02/05:30am 5.1 3.9 4.8 98 0.1 CALM 0 0 0 0 - - 0.0
02/05:00am 5.0 3.8 4.6 97 0.2 CALM 0 0 0 0 - - 0.0
02/04:30am 4.8 2.8 4.4 97 0.2 SSW 4 6 2 3 - - 0.0
02/04:00am 5.7 4.6 5.3 97 0.2 CALM 0 0 0 0 - - 0.0
02/03:30am 5.6 4.1 5.2 97 0.2 E 2 4 1 2 - - 0.0
02/03:00am 6.0 4.2 5.3 95 0.3 N 4 6 2 3 - - 0.0
02/02:30am 6.6 5.5 5.2 91 0.6 CALM 0 0 0 0 - - 0.0
02/02:00am 6.5 5.1 5.3 92 0.5 S 2 4 1 2 - - 0.0
02/01:30am 6.3 4.0 4.8 90 0.7 SSE 6 6 3 3 - - 0.0
02/01:00am 7.2 5.5 5.7 90 0.7 SE 4 6 2 3 - - 0.0
02/12:30am 7.6 6.4 6.4 92 0.5 SE 2 4 1 2 - - 0.0
02/12:00am 7.6 6.3 6.2 91 0.6 SSE 2 4 1 2 - - 0.0
 
Date/Time
EST
Temp
°C
App
Temp
°C
Dew
Point
Rel
Hum
%
Delta-T
°C
Wind Press
QNH
hPa
Press
MSL
hPa
Rain
since 9 am
mm
Dir
 
Spd
km/h
Gust
km/h
Spd
kts
Gust
kts
01/11:30pm 8.0 6.4 6.5 90 0.7 SSE 4 4 2 2 - - 0.0
01/11:00pm 8.3 6.7 6.3 87 0.9 SSE 4 4 2 2 - - 0.0
01/10:30pm 8.7 7.9 6.3 85 1.1 CALM 0 2 0 1 - - 0.0
01/10:00pm 9.2 7.9 6.1 81 1.4 SSE 2 4 1 2 - - 0.0
01/09:30pm 9.9 8.6 6.1 77 1.8 SSW 2 6 1 3 - - 0.0
01/09:00pm 10.6 8.9 6.0 73 2.1 SSW 4 6 2 3 - - 0.0
01/08:30pm 11.0 9.3 6.0 71 2.3 S 4 6 2 3 - - 0.0
01/08:00pm 11.7 9.5 5.3 65 3.0 SSW 6 7 3 4 - - 0.0
01/07:30pm 12.4 10.0 5.1 61 3.4 SSW 7 11 4 6 - - 0.0
01/07:00pm 13.2 10.8 5.4 59 3.6 SSW 7 11 4 6 - - 0.0
01/06:30pm 14.2 11.9 5.0 54 4.3 SSW 6 9 3 5 - - 0.0
01/06:00pm 13.9 12.3 6.3 60 3.6 WSW 4 9 2 5 - - 0.0
01/05:30pm 16.4 14.3 5.7 49 5.2 NW 6 7 3 4 - - 0.0
01/05:00pm 18.6 15.9 2.9 35 7.3 NNE 6 7 3 4 - - 0.0
01/04:30pm 19.4 16.4 2.3 32 7.9 NNE 7 13 4 7 - - 0.0
01/04:00pm 19.5 16.6 2.4 32 7.9 ESE 7 11 4 6 - - 0.0
01/03:30pm 20.4 18.6 1.3 28 8.7 CALM 0 7 0 4 - - 0.0
01/03:00pm 19.9 17.4 1.4 29 8.4 NE 4 9 2 5 - - 0.0
01/02:30pm 20.3 17.7 1.2 28 8.7 NNW 4 6 2 3 - - 0.0
01/02:00pm 19.7 16.8 1.2 29 8.4 NNE 6 9 3 5 - - 0.0
01/01:30pm 19.5 17.0 1.5 30 8.2 SSE 4 6 2 3 - - 0.0
01/01:00pm 18.1 15.6 1.6 33 7.4 S 4 7 2 4 - - 0.0
01/12:30pm 17.5 14.5 2.3 36 6.9 SW 7 9 4 5 - - 0.0
01/12:00pm 17.5 14.9 3.0 38 6.7 E 6 11 3 6 - - 0.0
01/11:30am 17.0 14.2 2.2 37 6.7 NNE 6 9 3 5 - - 0.0
01/11:00am 16.0 13.3 2.4 40 6.1 ENE 6 9 3 5 - - 0.0
01/10:30am 15.6 13.2 2.4 41 5.9 E 4 9 2 5 - - 0.0
01/10:00am 14.7 12.4 2.6 44 5.4 ESE 4 6 2 3 - - 0.0
01/09:30am 13.2 11.5 3.8 53 4.2 E 2 9 1 5 - - 0.0
01/09:00am 11.3 10.2 5.0 65 2.9 CALM 0 0 0 0 - - 0.0
01/08:30am 9.5 7.6 5.1 74 2.0 NNW 4 6 2 3 - - 0.0
01/08:00am 8.0 7.0 5.6 85 1.1 CALM 0 0 0 0 - - 0.0
01/07:30am 6.5 4.8 5.8 95 0.3 S 4 6 2 3 - - 0.0
01/07:00am 5.2 3.3 4.8 97 0.2 SSE 4 6 2 3 - - 0.0
01/06:30am 4.8 2.8 4.5 98 0.1 SSW 4 6 2 3 - - 0.0
01/06:00am 5.1 3.9 4.8 98 0.1 CALM 0 0 0 0 - - 0.0
01/05:30am 5.5 3.6 5.1 97 0.2 WNW 4 6 2 3 - - 0.0
01/05:00am 5.5 4.0 5.2 98 0.1 WSW 2 6 1 3 - - 0.0
01/04:30am 5.5 4.0 5.1 97 0.2 S 2 4 1 2 - - 0.0
01/04:00am 5.7 3.9 5.3 97 0.2 SSE 4 6 2 3 - - 0.0
01/03:30am 6.2 5.2 5.8 97 0.2 CALM 0 0 0 0 - - 0.0
01/03:00am 6.8 5.6 6.4 97 0.2 S 2 6 1 3 - - 0.0
01/02:30am 6.9 5.3 6.3 96 0.3 WSW 4 6 2 3 - - 0.0
01/02:00am 7.4 6.2 6.3 93 0.5 E 2 4 1 2 - - 0.0
01/01:30am 7.3 5.6 5.9 91 0.6 SE 4 6 2 3 - - 0.0
01/01:00am 7.8 6.2 6.4 91 0.6 SE 4 4 2 2 - - 0.0
01/12:30am 8.2 6.7 6.8 91 0.6 SW 4 6 2 3 - - 0.0
01/12:00am 8.2 6.6 6.3 88 0.9 S 4 6 2 3 - - 0.0
 
Date/Time
EST
Temp
°C
App
Temp
°C
Dew
Point
Rel
Hum
%
Delta-T
°C
Wind Press
QNH
hPa
Press
MSL
hPa
Rain
since 9 am
mm
Dir
 
Spd
km/h
Gust
km/h
Spd
kts
Gust
kts
31/11:30pm 8.8 7.8 7.3 90 0.7 SE 2 2 1 1 - - 0.0
31/11:00pm 8.9 7.2 7.4 90 0.7 SSE 6 6 3 3 - - 0.0
31/10:30pm 10.0 8.1 6.7 80 1.5 W 6 9 3 5 - - 0.0
31/10:00pm 9.9 9.1 8.0 88 0.9 SSW 2 6 1 3 - - 0.0
31/09:30pm 10.5 9.9 7.2 80 1.6 CALM 0 0 0 0 - - 0.0
31/09:00pm 11.2 10.3 7.7 79 1.7 SSW 2 4 1 2 - - 0.0
31/08:30pm 11.5 10.5 7.2 75 2.1 SW 2 6 1 3 - - 0.0
31/08:00pm 12.5 11.4 7.0 69 2.6 WSW 2 7 1 4 - - 0.0
31/07:30pm 13.3 12.5 6.4 63 3.3 CALM 0 0 0 0 - - 0.0
31/07:00pm 14.1 13.4 6.9 62 3.5 CALM 0 0 0 0 - - 0.0
31/06:30pm 14.2 11.9 5.0 54 4.3 SE 6 9 3 5 - - 0.0
31/06:00pm 15.3 13.0 4.7 49 5.0 ESE 6 9 3 5 - - 0.0
31/05:30pm 16.3 14.0 4.7 46 5.5 E 6 11 3 6 - - 0.0
31/05:00pm 17.5 15.8 6.1 47 5.6 NW 4 6 2 3 - - 0.0
31/04:30pm 18.0 15.8 5.2 43 6.2 N 6 7 3 4 - - 0.0
31/04:00pm 18.8 17.7 4.9 40 6.7 CALM 0 2 0 1 - - 0.0
31/03:30pm 18.4 15.9 3.5 37 7.0 SSE 6 9 3 5 - - 0.0
31/03:00pm 18.6 16.4 3.3 36 7.1 SSW 4 11 2 6 - - 0.0
31/02:30pm 19.0 16.5 3.6 36 7.3 SE 6 11 3 6 - - 0.0
31/02:00pm 19.6 17.8 3.7 35 7.5 NE 2 9 1 5 - - 0.0
31/01:30pm 18.9 17.2 3.9 37 7.1 SW 2 6 1 3 - - 0.0
31/01:00pm 19.1 17.2 4.8 39 6.9 NW 4 7 2 4 - - 0.0
31/12:30pm 18.6 16.0 4.0 38 6.9 ESE 7 17 4 9 - - 0.0
31/12:00pm 18.2 15.6 3.3 37 6.9 NNE 6 9 3 5 - - 0.0
31/11:30am 18.0 16.0 4.6 41 6.4 ENE 4 9 2 5 - - 0.0
31/11:00am 16.5 14.4 3.9 43 5.9 SW 4 9 2 5 - - 0.0
31/10:30am 16.5 14.8 5.8 49 5.2 NNW 4 7 2 4 - - 0.0
31/10:00am 15.2 13.3 5.1 51 4.8 SSE 4 9 2 5 - - 0.0
31/09:30am 14.3 13.0 6.2 58 3.9 SSE 2 6 1 3 - - 0.0
31/09:00am 13.5 12.1 7.1 65 3.1 SSE 4 7 2 4 - - 0.0
31/08:30am 12.4 11.3 7.1 70 2.6 SE 2 6 1 3 - - 0.0
31/08:00am 11.4 10.5 7.9 79 1.7 SE 2 4 1 2 - - 0.0
31/07:30am 10.7 10.3 8.3 85 1.2 CALM 0 4 0 2 - - 0.0
31/07:00am 9.1 7.9 8.2 94 0.4 S 4 6 2 3 - - 0.0
31/06:30am 8.8 7.0 8.0 95 0.4 SW 7 9 4 5 - - 0.0
31/06:00am 8.9 7.6 7.5 91 0.7 SW 4 4 2 2 - - 0.0
31/05:30am 9.6 8.6 7.5 87 1.0 SSE 2 4 1 2 - - 0.0
31/05:00am 10.7 10.1 7.6 81 1.5 CALM 0 0 0 0 - - 0.0
31/04:30am 10.8 10.3 7.9 82 1.4 CALM 0 0 0 0 - - 0.0
31/04:00am 11.3 10.8 7.8 79 1.7 CALM 0 0 0 0 - - 0.0
31/03:30am 11.5 10.9 7.6 77 1.9 CALM 0 0 0 0 - - 0.0
31/03:00am 11.8 11.1 6.9 72 2.3 CALM 0 0 0 0 - - 0.0
31/02:30am 11.8 10.3 6.9 72 2.3 SE 4 4 2 2 - - 0.0
31/02:00am 12.0 11.5 7.7 75 2.1 CALM 0 0 0 0 - - 0.0
31/01:30am 12.2 11.4 6.5 68 2.7 CALM 0 0 0 0 - - 0.0
31/01:00am 12.3 10.3 6.4 67 2.8 SSW 6 7 3 4 - - 0.0
31/12:30am 12.2 10.3 6.5 68 2.7 S 6 9 3 5 - - 0.0
31/12:00am 12.7 11.0 5.8 63 3.2 S 4 6 2 3 - - 0.0
 
Date/Time
EST
Temp
°C
App
Temp
°C
Dew
Point
Rel
Hum
%
Delta-T
°C
Wind Press
QNH
hPa
Press
MSL
hPa
Rain
since 9 am
mm
Dir
 
Spd
km/h
Gust
km/h
Spd
kts
Gust
kts
30/11:30pm 12.7 10.7 6.1 64 3.1 SSW 6 9 3 5 - - 0.0
30/11:00pm 12.9 10.7 6.0 63 3.3 SW 7 9 4 5 - - 0.0
30/10:30pm 12.5 11.0 6.8 68 2.7 SW 4 6 2 3 - - 0.0
30/10:00pm 12.4 10.9 6.7 68 2.7 SSW 4 4 2 2 - - 0.0
30/09:30pm 12.2 10.8 7.3 72 2.4 SW 4 6 2 3 - - 0.0
30/09:00pm 12.1 11.4 6.8 70 2.5 CALM 0 0 0 0 - - 0.0
30/08:30pm 12.3 10.9 7.2 71 2.5 SW 4 4 2 2 - - 0.0

Other Formats:

Comma delimited format used in spreadsheet applications
http://www.bom.gov.au/fwo/IDN60801/IDN60801.94763.axf

JavaScript Object Notation format (JSON) in row-major order
http://www.bom.gov.au/fwo/IDN60801/IDN60801.94763.json